createdAt,value
2022-09-18T00:02:05.159Z,99.90
2022-09-18T00:04:35.019Z,99.90
2022-09-18T00:07:04.705Z,99.90
2022-09-18T00:09:34.343Z,99.90
2022-09-18T00:12:04.158Z,99.90
2022-09-18T00:14:33.948Z,99.90
2022-09-18T00:17:08.899Z,99.90
2022-09-18T00:19:38.869Z,99.90
2022-09-18T00:22:08.501Z,99.90
2022-09-18T00:24:38.250Z,99.90
2022-09-18T00:27:08.170Z,99.90
2022-09-18T00:29:37.762Z,99.90
2022-09-18T00:32:07.417Z,99.90
2022-09-18T00:34:37.142Z,99.90
2022-09-18T00:37:07.349Z,99.90
2022-09-18T00:39:37.441Z,99.90
2022-09-18T00:42:07.901Z,99.90
2022-09-18T00:44:44.030Z,99.90
2022-09-18T00:47:37.412Z,99.90
2022-09-18T00:50:16.441Z,99.90
2022-09-18T00:52:58.570Z,99.90
2022-09-18T00:55:39.891Z,99.90
2022-09-18T00:58:10.439Z,99.90
2022-09-18T01:00:41.156Z,99.90
2022-09-18T01:03:11.233Z,99.90
2022-09-18T01:06:17.472Z,99.90
2022-09-18T01:09:28.821Z,99.90
2022-09-18T01:12:17.368Z,99.90
2022-09-18T01:15:15.204Z,99.90
2022-09-18T01:18:07.327Z,99.90
2022-09-18T01:21:16.276Z,99.90
2022-09-18T01:24:17.473Z,99.90
2022-09-18T01:26:59.097Z,99.90
2022-09-18T01:29:59.599Z,99.90
2022-09-18T01:32:36.650Z,99.90
2022-09-18T01:35:40.972Z,99.90
2022-09-18T01:38:32.409Z,99.90
2022-09-18T01:41:14.091Z,99.90
2022-09-18T01:43:45.129Z,99.90
2022-09-18T01:46:18.526Z,99.90
2022-09-18T01:49:17.356Z,99.90
2022-09-18T01:52:07.015Z,99.90
2022-09-18T01:54:46.243Z,99.90
2022-09-18T01:57:24.151Z,99.90
2022-09-18T02:00:02.920Z,99.90
2022-09-18T02:02:44.494Z,99.90
2022-09-18T02:05:20.600Z,99.90
2022-09-18T02:08:12.694Z,99.90
2022-09-18T02:11:02.541Z,99.90
2022-09-18T02:13:38.882Z,99.90
2022-09-18T02:16:16.421Z,99.90
2022-09-18T02:18:52.540Z,99.90
2022-09-18T02:21:30.711Z,99.90
2022-09-18T02:24:10.701Z,99.90
2022-09-18T02:26:43.122Z,99.90
2022-09-18T02:29:17.590Z,99.90
2022-09-18T02:31:48.178Z,99.90
2022-09-18T02:34:19.709Z,99.90
2022-09-18T02:37:26.435Z,99.90
2022-09-18T02:40:23.721Z,99.90
2022-09-18T02:43:32.508Z,99.90
2022-09-18T02:46:38.108Z,99.90
2022-09-18T02:49:17.170Z,99.90
2022-09-18T02:52:00.178Z,99.90
2022-09-18T02:54:54.642Z,99.90
2022-09-18T02:57:38.443Z,99.90
2022-09-18T03:00:13.711Z,99.90
2022-09-18T03:02:45.689Z,99.90
2022-09-18T03:05:17.011Z,99.90
2022-09-18T03:07:46.693Z,99.90
2022-09-18T03:10:16.380Z,99.90
2022-09-18T03:12:45.961Z,99.90
2022-09-18T03:15:15.742Z,99.90
2022-09-18T03:17:45.321Z,99.90
2022-09-18T03:20:15.452Z,99.90
2022-09-18T03:22:45.615Z,99.90
2022-09-18T03:25:17.001Z,99.90
2022-09-18T03:27:48.433Z,99.90
2022-09-18T03:30:18.499Z,99.90
2022-09-18T03:32:49.389Z,99.90
2022-09-18T03:35:22.200Z,99.90
2022-09-18T03:37:52.295Z,99.90
2022-09-18T03:40:22.918Z,99.90
2022-09-18T03:42:53.082Z,99.90
2022-09-18T03:45:23.153Z,99.90
2022-09-18T03:47:53.147Z,99.90
2022-09-18T03:50:28.080Z,99.90
2022-09-18T03:52:59.032Z,99.90
2022-09-18T03:55:29.209Z,99.90
2022-09-18T03:57:59.189Z,99.90
2022-09-18T04:00:31.500Z,99.90
2022-09-18T04:03:01.264Z,99.90
2022-09-18T04:05:31.083Z,99.90
2022-09-18T04:08:00.979Z,99.90
2022-09-18T04:10:30.883Z,99.90
2022-09-18T04:13:04.772Z,99.90
2022-09-18T04:15:36.040Z,99.90
2022-09-18T04:18:05.920Z,99.90
2022-09-18T04:20:37.021Z,99.90
2022-09-18T04:23:08.420Z,99.90
2022-09-18T04:25:40.890Z,99.90
2022-09-18T04:28:10.644Z,99.90
2022-09-18T04:30:40.774Z,99.90
2022-09-18T04:33:15.273Z,99.90
2022-09-18T04:35:45.790Z,99.90
2022-09-18T04:38:16.499Z,99.90
2022-09-18T04:40:46.100Z,99.90
2022-09-18T04:43:15.803Z,99.90
2022-09-18T04:45:47.562Z,99.90
2022-09-18T04:48:20.572Z,99.90
2022-09-18T04:50:52.752Z,99.90
2022-09-18T04:53:22.902Z,99.90
2022-09-18T04:55:52.702Z,99.90
2022-09-18T04:58:22.842Z,99.90
2022-09-18T05:00:53.183Z,99.90
2022-09-18T05:03:24.310Z,99.90
2022-09-18T05:05:56.342Z,99.90
2022-09-18T05:08:27.132Z,99.90
2022-09-18T05:10:58.595Z,99.90
2022-09-18T05:13:28.893Z,99.90
2022-09-18T05:15:59.702Z,99.90
2022-09-18T05:18:29.460Z,99.90
2022-09-18T05:21:04.090Z,99.90
2022-09-18T05:23:36.692Z,99.90
2022-09-18T05:26:06.578Z,99.90
2022-09-18T05:28:37.668Z,99.90
2022-09-18T05:31:07.717Z,99.90
2022-09-18T05:33:38.259Z,99.90
2022-09-18T05:36:09.372Z,99.90
2022-09-18T05:38:40.454Z,99.90
2022-09-18T05:41:11.111Z,99.90
2022-09-18T05:43:40.858Z,99.90
2022-09-18T05:46:10.637Z,99.90
2022-09-18T05:48:41.099Z,99.90
2022-09-18T05:51:13.852Z,99.90
2022-09-18T05:53:53.093Z,99.90
2022-09-18T05:56:23.308Z,99.90
2022-09-18T05:58:53.448Z,99.90
2022-09-18T06:01:23.584Z,99.90
2022-09-18T06:03:53.959Z,99.90
2022-09-18T06:06:24.490Z,99.90
2022-09-18T06:08:57.468Z,99.90
2022-09-18T06:11:27.909Z,99.90
2022-09-18T06:13:58.310Z,99.90
2022-09-18T06:16:28.437Z,99.90
2022-09-18T06:19:01.922Z,99.90
2022-09-18T06:21:32.419Z,99.90
2022-09-18T06:24:03.848Z,99.90
2022-09-18T06:26:34.263Z,99.90
2022-09-18T06:29:05.534Z,99.90
2022-09-18T06:31:38.507Z,99.90
2022-09-18T06:34:08.728Z,99.90
2022-09-18T06:36:39.322Z,99.90
2022-09-18T06:39:10.108Z,99.90
2022-09-18T06:41:40.228Z,99.90
2022-09-18T06:44:10.378Z,99.90
2022-09-18T06:46:43.603Z,99.90
2022-09-18T06:49:16.571Z,99.90
2022-09-18T06:51:53.244Z,99.90
2022-09-18T06:54:24.641Z,99.90
2022-09-18T06:56:54.861Z,99.90
2022-09-18T06:59:25.068Z,99.90
2022-09-18T07:01:57.243Z,99.90
2022-09-18T07:04:28.339Z,99.90
2022-09-18T07:06:58.843Z,99.90
2022-09-18T07:09:28.970Z,99.90
2022-09-18T07:12:03.504Z,99.90
2022-09-18T07:14:33.549Z,99.90
2022-09-18T07:17:03.584Z,99.90
2022-09-18T07:19:33.901Z,99.90
2022-09-18T07:22:06.664Z,99.90
2022-09-18T07:24:38.389Z,99.90
2022-09-18T07:27:09.461Z,99.90
2022-09-18T07:29:39.710Z,99.90
2022-09-18T07:32:11.002Z,99.90
2022-09-18T07:34:43.630Z,99.90
2022-09-18T07:37:13.756Z,99.90
2022-09-18T07:39:45.660Z,99.90
2022-09-18T07:42:20.115Z,99.90
2022-09-18T07:44:50.190Z,99.90
2022-09-18T07:47:21.623Z,99.90
2022-09-18T07:49:55.093Z,99.90
2022-09-18T07:52:26.289Z,99.90
2022-09-18T07:54:56.531Z,99.90
2022-09-18T07:57:29.642Z,99.90
2022-09-18T08:00:05.441Z,99.90
2022-09-18T08:02:36.019Z,99.90
2022-09-18T08:05:07.381Z,99.90
2022-09-18T08:07:37.769Z,99.90
2022-09-18T08:10:09.172Z,99.90
2022-09-18T08:12:40.424Z,99.90
2022-09-18T08:15:13.214Z,99.90
2022-09-18T08:17:50.193Z,99.90
2022-09-18T08:20:22.124Z,99.90
2022-09-18T08:22:53.031Z,99.90
2022-09-18T08:25:23.211Z,99.90
2022-09-18T08:27:54.722Z,99.90
2022-09-18T08:30:24.682Z,99.90
2022-09-18T08:32:59.244Z,99.90
2022-09-18T08:35:29.632Z,99.90
2022-09-18T08:38:00.380Z,99.90
2022-09-18T08:41:09.745Z,99.00
2022-09-18T08:43:58.365Z,98.70
2022-09-18T08:46:53.408Z,98.40
2022-09-18T08:49:52.714Z,98.70
2022-09-18T08:52:31.482Z,97.80
2022-09-18T08:55:10.171Z,98.00
2022-09-18T08:57:58.173Z,97.40
2022-09-18T09:00:37.390Z,97.50
2022-09-18T09:03:40.543Z,97.40
2022-09-18T09:06:45.068Z,97.80
2022-09-18T09:09:44.298Z,97.40
2022-09-18T09:12:43.033Z,96.90
2022-09-18T09:15:38.071Z,96.80
2022-09-18T09:18:45.802Z,96.10
2022-09-18T09:21:30.563Z,96.40
2022-09-18T09:24:39.360Z,95.80
2022-09-18T09:27:34.052Z,95.30
2022-09-18T09:30:14.735Z,95.60
2022-09-18T09:33:09.182Z,95.30
2022-09-18T09:35:49.795Z,94.50
2022-09-18T09:38:43.086Z,94.50
2022-09-18T09:41:41.121Z,94.80
2022-09-18T09:44:40.003Z,94.40
2022-09-18T09:47:48.841Z,94.40
2022-09-18T09:50:39.326Z,94.30
2022-09-18T09:53:13.926Z,94.30
2022-09-18T09:56:25.622Z,94.20
2022-09-18T09:59:11.520Z,94.50
2022-09-18T10:02:20.445Z,94.80
2022-09-18T10:05:10.724Z,94.70
2022-09-18T10:07:57.502Z,94.80
2022-09-18T10:10:45.088Z,94.70
2022-09-18T10:13:39.623Z,94.80
2022-09-18T10:16:29.885Z,94.20
2022-09-18T10:19:01.610Z,94.80
2022-09-18T10:21:36.683Z,94.80
2022-09-18T10:24:46.285Z,95.00
2022-09-18T10:27:18.756Z,95.20
2022-09-18T10:29:48.608Z,95.40
2022-09-18T10:32:39.001Z,95.50
2022-09-18T10:35:38.123Z,95.70
2022-09-18T10:38:32.429Z,95.80
2022-09-18T10:41:43.163Z,96.20
2022-09-18T10:44:37.727Z,96.50
2022-09-18T10:47:23.238Z,97.00
2022-09-18T10:50:09.186Z,97.30
2022-09-18T10:52:50.634Z,97.60
2022-09-18T10:55:27.608Z,97.80
2022-09-18T10:58:27.960Z,98.00
2022-09-18T11:01:10.986Z,98.50
2022-09-18T11:04:10.429Z,98.80
2022-09-18T11:06:45.508Z,98.90
2022-09-18T11:09:22.079Z,98.90
2022-09-18T11:11:54.291Z,99.00
2022-09-18T11:14:32.316Z,99.20
2022-09-18T11:17:04.298Z,99.30
2022-09-18T11:19:40.767Z,99.60
2022-09-18T11:22:35.220Z,99.90
2022-09-18T11:25:28.587Z,99.90
2022-09-18T11:28:00.800Z,99.90
2022-09-18T11:30:33.468Z,99.90
2022-09-18T11:33:26.754Z,99.90
2022-09-18T11:36:08.356Z,99.90
2022-09-18T11:38:44.806Z,99.90
2022-09-18T11:41:16.529Z,99.90
2022-09-18T11:43:46.789Z,99.90
2022-09-18T11:46:46.768Z,99.90
2022-09-18T11:49:27.957Z,99.90
2022-09-18T11:52:07.017Z,99.90
2022-09-18T11:55:00.459Z,99.90
2022-09-18T11:57:53.447Z,99.90
2022-09-18T12:00:29.759Z,99.90
2022-09-18T12:03:20.786Z,99.90
2022-09-18T12:06:14.820Z,99.90
2022-09-18T12:09:06.372Z,99.90
2022-09-18T12:12:03.301Z,99.90
2022-09-18T12:14:50.270Z,99.90
2022-09-18T12:17:57.944Z,99.90
2022-09-18T12:20:41.874Z,99.90
2022-09-18T12:23:17.121Z,99.90
2022-09-18T12:26:21.898Z,99.90
2022-09-18T12:29:30.687Z,99.90
2022-09-18T12:32:32.540Z,99.90
2022-09-18T12:35:40.170Z,99.90
2022-09-18T12:38:48.691Z,99.90
2022-09-18T12:41:57.490Z,99.90
2022-09-18T12:44:55.237Z,99.90
2022-09-18T12:48:01.645Z,99.90
2022-09-18T12:51:03.627Z,99.90
2022-09-18T12:54:12.580Z,99.90
2022-09-18T12:57:21.284Z,99.90
2022-09-18T13:00:15.682Z,99.90
2022-09-18T13:03:26.825Z,99.90
2022-09-18T13:06:23.327Z,99.90
2022-09-18T13:09:00.370Z,99.90
2022-09-18T13:11:48.875Z,99.90
2022-09-18T13:14:45.152Z,99.90
2022-09-18T13:17:27.733Z,99.90
2022-09-18T13:20:34.345Z,99.90
2022-09-18T13:23:04.693Z,99.90
2022-09-18T13:25:42.501Z,99.90
2022-09-18T13:28:21.855Z,99.90
2022-09-18T13:31:30.788Z,99.90
2022-09-18T13:34:19.082Z,99.90
2022-09-18T13:36:49.670Z,99.90
2022-09-18T13:39:46.092Z,99.90
2022-09-18T13:42:40.953Z,99.90
2022-09-18T13:45:29.029Z,99.90
2022-09-18T13:48:21.637Z,99.90
2022-09-18T13:51:13.806Z,99.90
2022-09-18T13:53:45.806Z,99.90
2022-09-18T13:56:18.089Z,99.90
2022-09-18T13:58:58.723Z,99.90
2022-09-18T14:02:10.842Z,99.90
2022-09-18T14:05:19.829Z,99.90
2022-09-18T14:08:30.184Z,99.90
2022-09-18T14:11:17.657Z,99.90
2022-09-18T14:14:14.938Z,99.90
2022-09-18T14:16:47.726Z,99.90
2022-09-18T14:19:39.796Z,99.90
2022-09-18T14:22:26.639Z,99.90
2022-09-18T14:25:02.062Z,99.90
2022-09-18T14:27:58.843Z,99.90
2022-09-18T14:30:32.309Z,99.90
2022-09-18T14:33:31.677Z,99.90
2022-09-18T14:36:14.773Z,99.90
2022-09-18T14:38:45.259Z,99.90
2022-09-18T14:41:25.347Z,99.90
2022-09-18T14:44:08.340Z,99.90
2022-09-18T14:46:59.467Z,99.90
2022-09-18T14:49:53.589Z,99.90
2022-09-18T14:52:32.263Z,99.90
2022-09-18T14:55:02.494Z,99.90
2022-09-18T14:57:39.989Z,99.90
2022-09-18T15:00:21.192Z,99.90
2022-09-18T15:03:00.270Z,99.90
2022-09-18T15:05:35.061Z,99.90
2022-09-18T15:08:10.318Z,99.90
2022-09-18T15:10:43.008Z,99.90
2022-09-18T15:13:19.517Z,99.90
2022-09-18T15:15:59.409Z,99.90
2022-09-18T15:18:31.549Z,99.90
2022-09-18T15:21:06.271Z,99.90
2022-09-18T15:23:42.234Z,99.90
2022-09-18T15:26:15.725Z,99.90
2022-09-18T15:28:51.253Z,99.90
2022-09-18T15:31:23.893Z,99.90
2022-09-18T15:34:12.980Z,99.90
2022-09-18T15:36:43.400Z,99.90
2022-09-18T15:39:38.756Z,99.90
2022-09-18T15:42:35.322Z,99.90
2022-09-18T15:45:21.138Z,99.90
2022-09-18T15:47:51.967Z,99.90
2022-09-18T15:50:35.786Z,99.90
2022-09-18T15:53:24.483Z,99.90
2022-09-18T15:56:06.851Z,99.90
2022-09-18T15:58:46.881Z,99.90
2022-09-18T16:01:23.542Z,99.90
2022-09-18T16:04:09.263Z,99.90
2022-09-18T16:06:48.408Z,99.90
2022-09-18T16:09:42.056Z,99.90
2022-09-18T16:12:41.438Z,99.90
2022-09-18T16:15:25.137Z,99.90
2022-09-18T16:17:59.777Z,99.90
2022-09-18T16:21:07.794Z,99.90
2022-09-18T16:24:05.134Z,99.90
2022-09-18T16:26:41.375Z,99.90
2022-09-18T16:29:30.634Z,99.90
2022-09-18T16:32:02.053Z,99.90
2022-09-18T16:34:32.074Z,99.90
2022-09-18T16:37:05.856Z,99.90
2022-09-18T16:39:39.753Z,99.90
2022-09-18T16:42:24.383Z,99.90
2022-09-18T16:44:58.523Z,99.90
2022-09-18T16:47:28.912Z,99.90
2022-09-18T16:49:59.114Z,99.90
2022-09-18T16:52:32.394Z,99.90
2022-09-18T16:55:02.603Z,99.90
2022-09-18T16:57:33.943Z,99.90
2022-09-18T17:00:10.023Z,99.90
2022-09-18T17:02:46.572Z,99.90
2022-09-18T17:05:17.874Z,99.90
2022-09-18T17:07:49.823Z,99.90
2022-09-18T17:10:20.265Z,99.90
2022-09-18T17:12:51.642Z,99.90
2022-09-18T17:15:21.821Z,99.90
2022-09-18T17:17:53.385Z,99.90
2022-09-18T17:20:23.704Z,99.90
2022-09-18T17:22:53.953Z,99.90
2022-09-18T17:25:24.161Z,99.90
2022-09-18T17:27:54.574Z,99.90
2022-09-18T17:30:28.895Z,99.90
2022-09-18T17:32:59.263Z,99.90
2022-09-18T17:35:29.443Z,99.90
2022-09-18T17:37:59.372Z,99.90
2022-09-18T17:40:29.180Z,99.90
2022-09-18T17:42:58.919Z,99.90
2022-09-18T17:45:28.793Z,99.90
2022-09-18T17:47:58.564Z,99.90
2022-09-18T17:50:28.293Z,99.90
2022-09-18T17:52:58.114Z,99.90
2022-09-18T17:55:27.773Z,99.90
2022-09-18T17:57:58.264Z,99.90
2022-09-18T18:00:29.215Z,99.90
2022-09-18T18:02:58.894Z,99.90
2022-09-18T18:05:31.142Z,99.90
2022-09-18T18:08:01.247Z,99.90
2022-09-18T18:10:31.675Z,99.90
2022-09-18T18:13:01.844Z,99.90
2022-09-18T18:15:32.556Z,99.90
2022-09-18T18:18:02.614Z,99.90
2022-09-18T18:20:32.797Z,99.90
2022-09-18T18:23:02.842Z,99.90
2022-09-18T18:25:33.006Z,99.90
2022-09-18T18:28:03.523Z,99.90
2022-09-18T18:30:33.837Z,99.90
2022-09-18T18:33:04.996Z,99.90
2022-09-18T18:35:35.624Z,99.90
2022-09-18T18:38:05.577Z,99.90
2022-09-18T18:40:35.789Z,99.90
2022-09-18T18:43:07.697Z,99.90
2022-09-18T18:45:37.511Z,99.90
2022-09-18T18:48:09.831Z,99.90
2022-09-18T18:50:44.327Z,99.90
2022-09-18T18:53:16.516Z,99.90
2022-09-18T18:55:48.604Z,99.90
2022-09-18T18:58:18.555Z,99.90
2022-09-18T19:00:48.390Z,99.90
2022-09-18T19:03:18.302Z,99.90
2022-09-18T19:05:50.943Z,99.90
2022-09-18T19:08:20.562Z,99.90
2022-09-18T19:11:03.864Z,99.90
2022-09-18T19:13:35.854Z,99.90
2022-09-18T19:16:06.435Z,99.90
2022-09-18T19:18:36.404Z,99.90
2022-09-18T19:21:06.315Z,99.90
2022-09-18T19:23:37.266Z,99.90
2022-09-18T19:26:07.062Z,99.90
2022-09-18T19:28:36.736Z,99.90
2022-09-18T19:31:07.187Z,99.90
2022-09-18T19:33:36.921Z,99.90
2022-09-18T19:36:08.794Z,99.90
2022-09-18T19:38:38.854Z,99.90
2022-09-18T19:41:40.592Z,99.90
2022-09-18T19:44:39.946Z,99.90
2022-09-18T19:47:22.495Z,99.90
2022-09-18T19:49:53.183Z,99.90
2022-09-18T19:52:26.784Z,99.90
2022-09-18T19:54:57.762Z,99.90
2022-09-18T19:57:30.122Z,99.90
2022-09-18T20:00:01.311Z,99.90
2022-09-18T20:02:31.272Z,99.90
2022-09-18T20:05:01.554Z,99.90
2022-09-18T20:07:32.804Z,99.90
2022-09-18T20:10:02.896Z,99.90
2022-09-18T20:12:35.563Z,99.90
2022-09-18T20:15:06.725Z,99.90
2022-09-18T20:17:36.798Z,99.90
2022-09-18T20:20:16.317Z,99.90
2022-09-18T20:22:46.623Z,99.90
2022-09-18T20:25:16.923Z,99.90
2022-09-18T20:27:46.864Z,99.90
2022-09-18T20:30:17.194Z,99.90
2022-09-18T20:32:47.266Z,99.90
2022-09-18T20:35:17.333Z,99.90
2022-09-18T20:37:46.957Z,99.90
2022-09-18T20:40:17.211Z,99.90
2022-09-18T20:42:46.998Z,99.90
2022-09-18T20:45:16.617Z,99.90
2022-09-18T20:47:46.210Z,99.90
2022-09-18T20:50:16.515Z,99.90
2022-09-18T20:52:46.796Z,99.90
2022-09-18T20:55:19.055Z,99.90
2022-09-18T20:57:49.335Z,99.90
2022-09-18T21:00:19.239Z,99.90
2022-09-18T21:02:53.613Z,99.90
2022-09-18T21:05:24.121Z,99.90
2022-09-18T21:07:59.037Z,99.90
2022-09-18T21:10:28.683Z,99.90
2022-09-18T21:12:59.521Z,99.90
2022-09-18T21:15:30.416Z,99.90
2022-09-18T21:18:00.127Z,99.90
2022-09-18T21:20:29.626Z,99.90
2022-09-18T21:23:18.764Z,99.90
2022-09-18T21:25:48.297Z,99.90
2022-09-18T21:28:17.867Z,99.90
2022-09-18T21:30:47.528Z,99.90
2022-09-18T21:33:17.507Z,99.90
2022-09-18T21:35:56.486Z,99.90
2022-09-18T21:38:26.489Z,99.90
2022-09-18T21:40:56.836Z,99.90
2022-09-18T21:43:26.776Z,99.90
2022-09-18T21:45:57.098Z,99.90
2022-09-18T21:48:27.079Z,99.90
2022-09-18T21:50:57.040Z,99.90
2022-09-18T21:53:27.020Z,99.90
2022-09-18T21:56:05.381Z,99.90
2022-09-18T21:58:40.782Z,99.90
2022-09-18T22:01:20.448Z,99.90
2022-09-18T22:03:59.319Z,99.90
2022-09-18T22:06:37.561Z,99.90
2022-09-18T22:09:15.429Z,99.90
2022-09-18T22:11:46.628Z,99.90
2022-09-18T22:14:33.008Z,99.90
2022-09-18T22:17:05.260Z,99.90
2022-09-18T22:19:40.564Z,99.90
2022-09-18T22:22:12.028Z,99.90
2022-09-18T22:24:41.992Z,99.90
2022-09-18T22:27:14.599Z,99.90
2022-09-18T22:29:45.049Z,99.90
2022-09-18T22:32:15.049Z,99.90
2022-09-18T22:34:45.008Z,99.90
2022-09-18T22:37:15.039Z,99.90
2022-09-18T22:39:44.851Z,99.90
2022-09-18T22:42:14.722Z,99.90
2022-09-18T22:44:44.529Z,99.90
2022-09-18T22:47:14.294Z,99.90
2022-09-18T22:49:43.818Z,99.90
2022-09-18T22:52:13.450Z,99.90
2022-09-18T22:54:43.041Z,99.90
2022-09-18T22:57:12.828Z,99.90
2022-09-18T22:59:42.354Z,99.90
2022-09-18T23:02:12.078Z,99.90
2022-09-18T23:04:42.605Z,99.90
2022-09-18T23:07:12.523Z,99.90
2022-09-18T23:09:43.391Z,99.90
2022-09-18T23:12:13.143Z,99.90
2022-09-18T23:14:42.743Z,99.90
2022-09-18T23:17:12.381Z,99.90
2022-09-18T23:19:42.819Z,99.90
2022-09-18T23:22:13.883Z,99.90
2022-09-18T23:24:43.739Z,99.90
2022-09-18T23:27:13.533Z,99.90
2022-09-18T23:29:43.220Z,99.90
2022-09-18T23:32:13.026Z,99.90
2022-09-18T23:34:42.626Z,99.90
2022-09-18T23:37:12.304Z,99.90
2022-09-18T23:39:41.880Z,99.90
2022-09-18T23:42:12.797Z,99.90
2022-09-18T23:44:42.729Z,99.90
2022-09-18T23:47:12.681Z,99.90
2022-09-18T23:49:42.661Z,99.90
2022-09-18T23:52:12.580Z,99.90
2022-09-18T23:54:42.500Z,99.90
2022-09-18T23:57:12.607Z,99.90
2022-09-18T23:59:42.539Z,99.90
